createdAt,value
2023-01-11T00:01:12.501Z,94.18
2023-01-11T00:03:40.961Z,94.16
2023-01-11T00:06:10.710Z,94.19
2023-01-11T00:08:39.319Z,94.32
2023-01-11T00:11:14.858Z,94.44
2023-01-11T00:13:44.600Z,94.54
2023-01-11T00:16:13.705Z,94.50
2023-01-11T00:18:42.553Z,94.39
2023-01-11T00:21:11.210Z,94.45
2023-01-11T00:23:39.560Z,94.33
2023-01-11T00:26:11.566Z,94.44
2023-01-11T00:28:40.317Z,94.58
2023-01-11T00:31:09.726Z,94.75
2023-01-11T00:33:38.215Z,94.85
2023-01-11T00:36:08.039Z,94.91
2023-01-11T00:38:52.822Z,94.90
2023-01-11T00:41:41.419Z,94.95
2023-01-11T00:44:30.061Z,94.98
2023-01-11T00:47:17.193Z,95.02
2023-01-11T00:49:45.637Z,94.97
2023-01-11T00:52:14.329Z,94.94
2023-01-11T00:54:43.258Z,95.06
2023-01-11T00:57:11.565Z,95.21
2023-01-11T00:59:40.756Z,95.34
2023-01-11T01:02:11.064Z,95.31
2023-01-11T01:04:40.452Z,95.37
2023-01-11T01:07:08.957Z,95.26
2023-01-11T01:09:37.673Z,95.23
2023-01-11T01:12:08.391Z,95.27
2023-01-11T01:14:36.691Z,95.35
2023-01-11T01:17:07.815Z,95.33
2023-01-11T01:19:38.447Z,95.39
2023-01-11T01:22:07.006Z,95.35
2023-01-11T01:24:35.942Z,95.37
2023-01-11T01:27:04.523Z,95.46
2023-01-11T01:29:32.847Z,95.40
2023-01-11T01:32:01.239Z,95.28
2023-01-11T01:34:30.072Z,95.26
2023-01-11T01:36:58.519Z,95.35
2023-01-11T01:39:27.152Z,95.21
2023-01-11T01:41:55.516Z,95.31
2023-01-11T01:44:59.456Z,95.29
2023-01-11T01:47:34.375Z,95.26
2023-01-11T01:50:07.945Z,95.25
2023-01-11T01:52:37.563Z,95.29
2023-01-11T01:55:10.526Z,95.22
2023-01-11T01:57:41.206Z,95.21
2023-01-11T02:00:12.358Z,95.09
2023-01-11T02:02:43.172Z,95.39
2023-01-11T02:05:14.515Z,95.33
2023-01-11T02:07:45.000Z,95.36
2023-01-11T02:10:16.338Z,95.41
2023-01-11T02:12:49.283Z,95.41
2023-01-11T02:15:20.573Z,95.32
2023-01-11T02:17:49.078Z,95.31
2023-01-11T02:20:34.636Z,95.32
2023-01-11T02:23:36.397Z,95.38
2023-01-11T02:26:36.144Z,95.33
2023-01-11T02:29:13.338Z,95.38
2023-01-11T02:31:47.546Z,95.16
2023-01-11T02:34:27.335Z,95.34
2023-01-11T02:37:07.329Z,95.17
2023-01-11T02:39:47.447Z,95.10
2023-01-11T02:42:43.458Z,94.91
2023-01-11T02:45:19.704Z,94.88
2023-01-11T02:47:55.272Z,95.06
2023-01-11T02:50:30.381Z,95.06
2023-01-11T02:53:05.722Z,95.04
2023-01-11T02:55:39.459Z,95.35
2023-01-11T02:58:11.521Z,95.36
2023-01-11T03:00:41.301Z,94.96
2023-01-11T03:03:15.291Z,95.01
2023-01-11T03:05:49.990Z,94.84
2023-01-11T03:08:33.854Z,94.61
2023-01-11T03:11:07.346Z,94.49
2023-01-11T03:13:49.585Z,94.38
2023-01-11T03:16:24.074Z,94.51
2023-01-11T03:19:01.145Z,94.41
2023-01-11T03:21:49.565Z,94.29
2023-01-11T03:24:28.603Z,94.34
2023-01-11T03:27:07.846Z,94.33
2023-01-11T03:29:40.209Z,94.24
2023-01-11T03:32:14.735Z,94.24
2023-01-11T03:34:51.841Z,94.30
2023-01-11T03:37:26.443Z,94.18
2023-01-11T03:40:02.109Z,94.18
2023-01-11T03:42:33.122Z,93.98
2023-01-11T03:45:04.193Z,93.78
2023-01-11T03:47:34.502Z,93.76
2023-01-11T03:50:06.368Z,93.54
2023-01-11T03:52:40.823Z,93.32
2023-01-11T03:55:12.335Z,93.01
2023-01-11T03:57:46.433Z,92.64
2023-01-11T04:00:15.719Z,92.17
2023-01-11T04:02:44.045Z,91.91
2023-01-11T04:05:12.813Z,91.67
2023-01-11T04:07:41.188Z,91.57
2023-01-11T04:10:11.945Z,91.56
2023-01-11T04:12:40.292Z,91.23
2023-01-11T04:15:12.504Z,91.03
2023-01-11T04:17:40.875Z,90.80
2023-01-11T04:20:11.769Z,90.63
2023-01-11T04:22:40.200Z,90.39
2023-01-11T04:25:09.432Z,90.29
2023-01-11T04:27:39.845Z,90.17
2023-01-11T04:30:12.135Z,89.82
2023-01-11T04:32:40.556Z,89.98
2023-01-11T04:35:09.741Z,89.86
2023-01-11T04:37:38.068Z,89.80
2023-01-11T04:40:09.337Z,89.58
2023-01-11T04:42:37.799Z,89.43
2023-01-11T04:45:07.866Z,89.04
2023-01-11T04:47:36.440Z,88.71
2023-01-11T04:50:06.407Z,88.53
2023-01-11T04:52:35.144Z,88.28
2023-01-11T04:55:04.765Z,87.97
2023-01-11T04:57:33.109Z,87.94
2023-01-11T05:00:01.520Z,88.15
2023-01-11T05:02:30.239Z,88.53
2023-01-11T05:04:58.506Z,88.24
2023-01-11T05:07:26.789Z,87.90
2023-01-11T05:09:55.044Z,87.93
2023-01-11T05:12:23.382Z,88.01
2023-01-11T05:14:51.698Z,87.50
2023-01-11T05:17:20.236Z,87.70
2023-01-11T05:19:48.658Z,87.09
2023-01-11T05:22:16.895Z,86.60
2023-01-11T05:24:45.764Z,86.20
2023-01-11T05:27:13.977Z,85.86
2023-01-11T05:29:43.662Z,85.28
2023-01-11T05:32:12.567Z,84.94
2023-01-11T05:34:40.909Z,84.40
2023-01-11T05:37:09.183Z,84.32
2023-01-11T05:39:37.450Z,83.68
2023-01-11T05:42:06.107Z,82.85
2023-01-11T05:44:52.895Z,82.38
2023-01-11T05:47:21.197Z,82.49
2023-01-11T05:49:49.791Z,82.45
2023-01-11T05:52:18.125Z,82.20
2023-01-11T05:54:46.625Z,81.74
2023-01-11T05:57:14.833Z,81.70
2023-01-11T05:59:43.684Z,81.59
2023-01-11T06:02:12.128Z,81.41
2023-01-11T06:04:40.756Z,81.29
2023-01-11T06:07:09.215Z,81.16
2023-01-11T06:09:37.509Z,81.17
2023-01-11T06:12:06.541Z,81.09
2023-01-11T06:14:37.817Z,80.90
2023-01-11T06:17:06.415Z,80.74
2023-01-11T06:19:34.737Z,80.84
2023-01-11T06:22:05.861Z,80.62
2023-01-11T06:24:34.200Z,80.50
2023-01-11T06:27:02.487Z,80.34
2023-01-11T06:29:30.882Z,80.28
2023-01-11T06:31:59.211Z,80.46
2023-01-11T06:34:27.582Z,80.53
2023-01-11T06:36:55.906Z,80.49
2023-01-11T06:39:24.460Z,80.37
2023-01-11T06:41:52.853Z,80.57
2023-01-11T06:44:21.564Z,79.82
2023-01-11T06:46:50.250Z,79.80
2023-01-11T06:49:18.990Z,79.61
2023-01-11T06:51:48.397Z,79.62
2023-01-11T06:54:23.474Z,79.48
2023-01-11T06:56:51.789Z,79.45
2023-01-11T06:59:20.170Z,79.30
2023-01-11T07:01:48.667Z,79.40
2023-01-11T07:04:18.007Z,79.19
2023-01-11T07:06:46.838Z,79.24
2023-01-11T07:09:15.201Z,79.12
2023-01-11T07:11:43.524Z,79.11
2023-01-11T07:14:19.449Z,78.90
2023-01-11T07:16:48.202Z,79.04
2023-01-11T07:19:17.365Z,79.30
2023-01-11T07:21:45.760Z,79.08
2023-01-11T07:24:14.150Z,78.94
2023-01-11T07:26:42.631Z,79.14
2023-01-11T07:29:11.782Z,79.27
2023-01-11T07:31:40.605Z,79.40
2023-01-11T07:34:09.011Z,79.25
2023-01-11T07:36:38.954Z,79.32
2023-01-11T07:39:08.016Z,78.99
2023-01-11T07:41:55.528Z,79.12
2023-01-11T07:44:24.737Z,79.18
2023-01-11T07:46:54.227Z,79.32
2023-01-11T07:49:22.789Z,79.29
2023-01-11T07:51:51.696Z,79.35
2023-01-11T07:54:20.327Z,79.34
2023-01-11T07:56:48.887Z,79.25
2023-01-11T07:59:17.537Z,79.11
2023-01-11T08:01:46.048Z,79.11
2023-01-11T08:04:14.494Z,79.22
2023-01-11T08:06:43.092Z,79.29
2023-01-11T08:09:11.728Z,79.24
2023-01-11T08:11:59.018Z,79.25
2023-01-11T08:14:39.231Z,79.28
2023-01-11T08:17:08.810Z,79.12
2023-01-11T08:19:37.344Z,79.27
2023-01-11T08:22:06.438Z,79.13
2023-01-11T08:24:34.939Z,78.84
2023-01-11T08:27:04.202Z,78.84
2023-01-11T08:29:32.974Z,79.19
2023-01-11T08:32:01.362Z,79.28
2023-01-11T08:34:29.855Z,79.03
2023-01-11T08:37:01.190Z,78.74
2023-01-11T08:39:30.331Z,78.72
2023-01-11T08:41:59.448Z,78.87
2023-01-11T08:44:38.387Z,78.88
2023-01-11T08:47:06.772Z,78.80
2023-01-11T08:49:35.335Z,78.92
2023-01-11T08:52:04.410Z,78.79
2023-01-11T08:54:32.921Z,78.81
2023-01-11T08:57:01.251Z,78.32
2023-01-11T08:59:30.359Z,78.37
2023-01-11T09:01:59.003Z,78.04
2023-01-11T09:04:28.064Z,77.91
2023-01-11T09:06:57.021Z,77.61
2023-01-11T09:09:25.438Z,77.20
2023-01-11T09:11:55.841Z,77.66
2023-01-11T09:14:26.569Z,77.32
2023-01-11T09:16:55.947Z,76.99
2023-01-11T09:19:24.475Z,77.26
2023-01-11T09:21:56.084Z,76.95
2023-01-11T09:24:24.439Z,77.22
2023-01-11T09:26:52.980Z,76.54
2023-01-11T09:29:21.468Z,76.35
2023-01-11T09:31:50.271Z,75.79
2023-01-11T09:34:20.244Z,75.62
2023-01-11T09:36:49.127Z,75.63
2023-01-11T09:39:21.766Z,75.30
2023-01-11T09:42:36.032Z,75.02
2023-01-11T09:45:14.738Z,74.69
2023-01-11T09:47:50.335Z,74.71
2023-01-11T09:50:23.125Z,74.58
2023-01-11T09:52:54.370Z,74.43
2023-01-11T09:55:32.337Z,74.49
2023-01-11T09:58:22.327Z,74.07
2023-01-11T10:01:01.239Z,74.09
2023-01-11T10:03:59.236Z,74.08
2023-01-11T10:06:32.931Z,73.65
2023-01-11T10:18:28.736Z,72.83
2023-01-11T10:18:39.581Z,72.90
2023-01-11T10:21:12.612Z,72.65
2023-01-11T10:23:49.592Z,72.58
2023-01-11T10:26:27.281Z,72.42
2023-01-11T10:29:21.410Z,72.32
2023-01-11T10:32:12.849Z,72.31
2023-01-11T10:35:05.313Z,72.25
2023-01-11T10:37:53.482Z,72.16
2023-01-11T10:40:39.145Z,72.29
2023-01-11T10:43:16.120Z,71.94
2023-01-11T10:45:50.116Z,71.61
2023-01-11T10:48:23.141Z,71.09
2023-01-11T10:51:01.019Z,71.59
2023-01-11T10:53:35.594Z,71.76
2023-01-11T10:56:14.958Z,71.60
2023-01-11T10:59:01.734Z,71.40
2023-01-11T11:01:49.510Z,71.32
2023-01-11T11:04:39.510Z,71.35
2023-01-11T11:07:15.571Z,71.38
2023-01-11T11:09:51.660Z,71.75
2023-01-11T11:12:26.958Z,71.55
2023-01-11T11:15:02.569Z,71.30
2023-01-11T11:17:34.469Z,71.30
2023-01-11T11:20:13.931Z,70.97
2023-01-11T11:22:44.372Z,71.38
2023-01-11T11:25:17.994Z,71.80
2023-01-11T11:27:50.906Z,72.01
2023-01-11T11:30:30.094Z,71.56
2023-01-11T11:33:01.472Z,71.59
2023-01-11T11:35:36.651Z,71.89
2023-01-11T11:38:05.429Z,71.82
2023-01-11T11:40:35.463Z,71.86
2023-01-11T11:43:16.864Z,71.89
2023-01-11T11:45:53.233Z,72.10
2023-01-11T11:48:21.936Z,72.04
2023-01-11T11:50:52.313Z,71.67
2023-01-11T11:53:32.351Z,71.80
2023-01-11T11:56:07.371Z,71.79
2023-01-11T11:58:41.687Z,71.81
2023-01-11T12:01:23.332Z,72.05
2023-01-11T12:03:54.381Z,71.65
2023-01-11T12:06:24.936Z,71.26
2023-01-11T12:08:54.798Z,71.31
2023-01-11T12:11:29.799Z,71.43
2023-01-11T12:14:02.506Z,71.50
2023-01-11T12:16:37.879Z,71.50
2023-01-11T12:19:26.329Z,71.48
2023-01-11T12:22:11.026Z,71.72
2023-01-11T12:24:39.545Z,71.58
2023-01-11T12:27:23.686Z,71.61
2023-01-11T12:30:07.905Z,71.89
2023-01-11T12:32:56.093Z,72.22
2023-01-11T12:35:35.750Z,72.01
2023-01-11T12:38:19.952Z,72.11
2023-01-11T12:41:00.958Z,72.25
2023-01-11T12:43:42.860Z,72.47
2023-01-11T12:46:21.975Z,72.56
2023-01-11T12:49:04.910Z,72.86
2023-01-11T12:51:37.307Z,72.91
2023-01-11T12:54:25.273Z,72.81
2023-01-11T12:57:13.366Z,73.11
2023-01-11T13:00:00.743Z,73.22
2023-01-11T13:02:51.813Z,73.68
2023-01-11T13:05:27.661Z,73.72
2023-01-11T13:08:10.261Z,73.84
2023-01-11T13:10:45.978Z,73.78
2023-01-11T13:13:19.900Z,74.02
2023-01-11T13:15:58.419Z,74.05
2023-01-11T13:18:38.459Z,74.01
2023-01-11T13:21:16.430Z,74.16
2023-01-11T13:23:48.661Z,74.15
2023-01-11T13:26:23.348Z,74.38
2023-01-11T13:28:57.995Z,74.43
2023-01-11T13:31:26.753Z,74.48
2023-01-11T13:34:01.945Z,74.55
2023-01-11T13:36:38.306Z,74.67
2023-01-11T13:39:13.677Z,74.50
2023-01-11T13:41:47.203Z,74.58
2023-01-11T13:44:23.629Z,74.93
2023-01-11T13:47:02.314Z,74.67
2023-01-11T13:49:44.706Z,74.75
2023-01-11T13:52:17.132Z,74.67
2023-01-11T13:54:53.553Z,74.68
2023-01-11T13:57:30.049Z,74.49
2023-01-11T14:00:06.330Z,74.43
2023-01-11T14:02:47.361Z,74.49
2023-01-11T14:05:20.558Z,74.64
2023-01-11T14:07:55.312Z,74.70
2023-01-11T14:10:37.665Z,74.50
2023-01-11T14:13:42.355Z,74.55
2023-01-11T14:16:21.007Z,74.40
2023-01-11T14:18:56.881Z,74.62
2023-01-11T14:21:34.121Z,74.73
2023-01-11T14:24:05.361Z,74.69
2023-01-11T14:26:57.084Z,74.70
2023-01-11T14:30:09.901Z,75.15
2023-01-11T14:32:58.802Z,75.62
2023-01-11T14:36:07.425Z,75.28
2023-01-11T14:39:03.156Z,75.08
2023-01-11T14:41:52.005Z,75.05
2023-01-11T14:45:00.748Z,75.10
2023-01-11T14:48:00.873Z,74.87
2023-01-11T14:50:41.415Z,74.67
2023-01-11T14:53:16.432Z,74.61
2023-01-11T14:55:45.755Z,74.47
2023-01-11T14:58:24.167Z,74.36
2023-01-11T15:01:11.456Z,74.17
2023-01-11T15:03:55.203Z,74.07
2023-01-11T15:06:24.204Z,74.31
2023-01-11T15:08:55.196Z,74.34
2023-01-11T15:11:36.560Z,74.32
2023-01-11T15:14:20.299Z,74.24
2023-01-11T15:17:10.591Z,74.24
2023-01-11T15:19:41.906Z,74.30
2023-01-11T15:22:24.785Z,74.30
2023-01-11T15:24:57.213Z,74.52
2023-01-11T15:27:27.476Z,74.57
2023-01-11T15:29:57.293Z,74.69
2023-01-11T15:32:28.355Z,74.69
2023-01-11T15:35:31.250Z,74.69
2023-01-11T15:38:03.488Z,74.67
2023-01-11T15:40:37.426Z,74.99
2023-01-11T15:43:27.889Z,74.91
2023-01-11T15:46:36.908Z,74.98
2023-01-11T15:49:57.914Z,75.08
2023-01-11T15:52:51.513Z,75.18
2023-01-11T15:56:03.179Z,75.09
2023-01-11T15:58:52.279Z,75.29
2023-01-11T16:01:25.883Z,75.39
2023-01-11T16:04:01.088Z,75.60
2023-01-11T16:06:41.351Z,75.66
2023-01-11T16:09:24.307Z,75.64
2023-01-11T16:12:05.873Z,75.96
2023-01-11T16:14:50.377Z,75.94
2023-01-11T16:17:22.554Z,76.14
2023-01-11T16:19:55.985Z,76.15
2023-01-11T16:22:27.613Z,76.19
2023-01-11T16:25:00.529Z,76.43
2023-01-11T16:27:32.024Z,76.45
2023-01-11T16:30:01.850Z,76.61
2023-01-11T16:32:32.028Z,76.68
2023-01-11T16:35:02.252Z,76.82
2023-01-11T16:37:36.777Z,77.09
2023-01-11T16:40:15.946Z,77.43
2023-01-11T16:42:49.910Z,77.79
2023-01-11T16:45:21.877Z,78.01
2023-01-11T16:48:05.334Z,78.23
2023-01-11T16:50:34.862Z,78.55
2023-01-11T16:53:05.172Z,78.78
2023-01-11T16:55:37.001Z,78.99
2023-01-11T16:58:07.277Z,79.16
2023-01-11T17:00:38.724Z,79.48
2023-01-11T17:03:23.135Z,79.71
2023-01-11T17:06:16.283Z,80.26
2023-01-11T17:08:44.770Z,80.75
2023-01-11T17:11:27.800Z,81.25
2023-01-11T17:14:42.089Z,81.33
2023-01-11T17:17:11.868Z,82.96
2023-01-11T17:19:45.270Z,84.94
2023-01-11T17:22:21.104Z,86.80
2023-01-11T17:24:53.247Z,88.73
2023-01-11T17:27:25.398Z,91.18
2023-01-11T17:29:56.391Z,92.44
2023-01-11T17:32:34.895Z,93.70
2023-01-11T17:35:06.683Z,95.02
2023-01-11T17:37:36.090Z,96.23
2023-01-11T17:40:23.684Z,96.86
2023-01-11T17:43:12.329Z,97.95
2023-01-11T17:45:41.825Z,98.64
2023-01-11T17:48:12.536Z,98.85
2023-01-11T17:50:47.946Z,99.14
2023-01-11T17:53:20.713Z,99.59
2023-01-11T17:55:52.271Z,100.00
2023-01-11T17:58:25.455Z,100.00
2023-01-11T18:01:17.858Z,100.00
2023-01-11T18:03:48.739Z,100.00
2023-01-11T18:06:27.101Z,100.00
2023-01-11T18:08:57.779Z,100.00
2023-01-11T18:11:28.780Z,100.00
2023-01-11T18:14:00.794Z,100.00
2023-01-11T18:16:29.352Z,100.00
2023-01-11T18:18:58.034Z,100.00
2023-01-11T18:21:39.410Z,100.00
2023-01-11T18:24:28.973Z,100.00
2023-01-11T18:27:15.378Z,100.00
2023-01-11T18:29:49.070Z,100.00
2023-01-11T18:32:18.395Z,100.00
2023-01-11T18:34:50.763Z,100.00
2023-01-11T18:37:19.652Z,100.00
2023-01-11T18:39:49.157Z,100.00
2023-01-11T18:42:20.498Z,100.00
2023-01-11T18:44:48.963Z,100.00
2023-01-11T18:47:20.015Z,100.00
2023-01-11T18:49:49.266Z,100.00
2023-01-11T18:52:18.490Z,100.00
2023-01-11T18:54:46.817Z,100.00
2023-01-11T18:57:23.693Z,100.00
2023-01-11T18:59:53.687Z,100.00
2023-01-11T19:02:26.050Z,100.00
2023-01-11T19:04:55.412Z,100.00
2023-01-11T19:07:25.388Z,100.00
2023-01-11T19:09:54.580Z,100.00
2023-01-11T19:12:25.286Z,100.00
2023-01-11T19:14:53.586Z,100.00
2023-01-11T19:17:21.855Z,100.00
2023-01-11T19:19:50.266Z,100.00
2023-01-11T19:22:19.192Z,100.00
2023-01-11T19:24:48.004Z,100.00
2023-01-11T19:27:16.531Z,100.00
2023-01-11T19:29:44.861Z,100.00
2023-01-11T19:32:14.948Z,100.00
2023-01-11T19:34:43.199Z,100.00
2023-01-11T19:37:11.489Z,100.00
2023-01-11T19:39:40.282Z,100.00
2023-01-11T19:42:08.779Z,100.00
2023-01-11T19:44:38.966Z,100.00
2023-01-11T19:47:11.894Z,100.00
2023-01-11T19:49:43.063Z,100.00
2023-01-11T19:52:17.924Z,100.00
2023-01-11T19:54:47.293Z,100.00
2023-01-11T19:57:19.378Z,100.00
2023-01-11T19:59:48.712Z,100.00
2023-01-11T20:02:20.252Z,100.00
2023-01-11T20:04:48.811Z,100.00
2023-01-11T20:07:17.166Z,100.00
2023-01-11T20:09:46.133Z,100.00
2023-01-11T20:12:15.220Z,100.00
2023-01-11T20:14:45.470Z,100.00
2023-01-11T20:17:15.111Z,100.00
2023-01-11T20:19:43.451Z,100.00
2023-01-11T20:22:12.051Z,100.00
2023-01-11T20:24:41.888Z,100.00
2023-01-11T20:27:10.982Z,100.00
2023-01-11T20:29:39.552Z,100.00
2023-01-11T20:32:31.198Z,100.00
2023-01-11T20:34:56.432Z,100.00
2023-01-11T20:37:24.863Z,100.00
2023-01-11T20:39:53.323Z,100.00
2023-01-11T20:42:26.377Z,100.00
2023-01-11T20:44:55.291Z,100.00
2023-01-11T20:47:24.528Z,100.00
2023-01-11T20:49:52.950Z,100.00
2023-01-11T20:52:21.274Z,100.00
2023-01-11T20:54:52.723Z,100.00
2023-01-11T20:57:21.247Z,100.00
2023-01-11T20:59:49.584Z,100.00
2023-01-11T21:02:18.010Z,100.00
2023-01-11T21:04:46.609Z,100.00
2023-01-11T21:07:14.966Z,100.00
2023-01-11T21:09:43.711Z,100.00
2023-01-11T21:12:12.360Z,100.00
2023-01-11T21:14:40.737Z,100.00
2023-01-11T21:17:09.180Z,100.00
2023-01-11T21:19:37.484Z,100.00
2023-01-11T21:22:05.879Z,100.00
2023-01-11T21:24:36.128Z,100.00
2023-01-11T21:27:04.668Z,100.00
2023-01-11T21:29:33.244Z,100.00
2023-01-11T21:32:01.645Z,100.00
2023-01-11T21:34:30.007Z,100.00
2023-01-11T21:36:58.325Z,100.00
2023-01-11T21:39:26.581Z,100.00
2023-01-11T21:41:55.670Z,100.00
2023-01-11T21:44:29.912Z,100.00
2023-01-11T21:46:58.610Z,100.00
2023-01-11T21:49:27.149Z,100.00
2023-01-11T21:51:55.556Z,100.00
2023-01-11T21:54:24.303Z,100.00
2023-01-11T21:56:52.929Z,100.00
2023-01-11T21:59:21.928Z,100.00
2023-01-11T22:01:50.425Z,100.00
2023-01-11T22:04:20.193Z,100.00
2023-01-11T22:06:53.541Z,100.00
2023-01-11T22:09:23.206Z,100.00
2023-01-11T22:11:51.550Z,100.00
2023-01-11T22:14:19.853Z,100.00
2023-01-11T22:16:48.192Z,100.00
2023-01-11T22:19:16.940Z,100.00
2023-01-11T22:21:45.132Z,100.00
2023-01-11T22:24:13.829Z,100.00
2023-01-11T22:26:42.661Z,100.00
2023-01-11T22:29:11.376Z,100.00
2023-01-11T22:31:41.301Z,100.00
2023-01-11T22:34:10.372Z,100.00
2023-01-11T22:36:38.992Z,100.00
2023-01-11T22:39:07.950Z,100.00
2023-01-11T22:41:36.437Z,100.00
2023-01-11T22:44:05.869Z,100.00
2023-01-11T22:46:34.693Z,100.00
2023-01-11T22:49:05.200Z,100.00
2023-01-11T22:51:35.145Z,100.00
2023-01-11T22:54:04.700Z,100.00
2023-01-11T22:56:33.078Z,100.00
2023-01-11T22:59:01.851Z,100.00
2023-01-11T23:01:32.816Z,100.00
2023-01-11T23:04:02.493Z,100.00
2023-01-11T23:06:32.756Z,100.00
2023-01-11T23:09:01.403Z,100.00
2023-01-11T23:11:50.535Z,100.00
2023-01-11T23:14:21.616Z,100.00
2023-01-11T23:16:50.192Z,100.00
2023-01-11T23:19:19.683Z,100.00
2023-01-11T23:21:48.576Z,100.00
2023-01-11T23:24:17.489Z,100.00
2023-01-11T23:26:45.875Z,100.00
2023-01-11T23:29:14.696Z,100.00
2023-01-11T23:31:43.415Z,100.00
2023-01-11T23:34:12.363Z,100.00
2023-01-11T23:36:42.287Z,100.00
2023-01-11T23:39:14.319Z,100.00
2023-01-11T23:42:01.549Z,100.00
2023-01-11T23:44:30.862Z,100.00
2023-01-11T23:47:17.388Z,100.00
2023-01-11T23:49:46.145Z,100.00
2023-01-11T23:52:14.754Z,100.00
2023-01-11T23:54:44.828Z,100.00
2023-01-11T23:57:14.064Z,100.00
2023-01-11T23:59:43.210Z,100.00
